createdAt,value
2023-03-27T00:03:48.739Z,3.70
2023-03-27T00:08:48.230Z,3.55
2023-03-27T00:13:50.496Z,4.50
2023-03-27T00:18:47.969Z,8.02
2023-03-27T00:23:44.827Z,3.53
2023-03-27T00:28:42.406Z,4.75
2023-03-27T00:33:40.262Z,5.35
2023-03-27T00:38:38.828Z,4.38
2023-03-27T00:43:36.846Z,2.70
2023-03-27T00:48:37.295Z,2.35
2023-03-27T00:53:34.179Z,2.55
2023-03-27T00:58:36.889Z,1.75
2023-03-27T01:03:34.664Z,1.90
2023-03-27T01:08:33.499Z,2.47
2023-03-27T01:13:50.269Z,1.60
2023-03-27T01:18:59.183Z,3.50
2023-03-27T01:24:39.270Z,1.30
2023-03-27T01:29:52.901Z,1.73
2023-03-27T01:35:07.283Z,2.10
2023-03-27T01:40:12.135Z,4.47
2023-03-27T01:45:16.544Z,1.37
2023-03-27T01:50:19.656Z,2.42
2023-03-27T01:55:23.473Z,1.42
2023-03-27T02:00:24.189Z,2.03
2023-03-27T02:05:36.865Z,1.50
2023-03-27T02:10:41.712Z,2.28
2023-03-27T02:15:45.128Z,1.77
2023-03-27T02:20:42.097Z,1.48
2023-03-27T02:25:41.427Z,2.45
2023-03-27T02:30:42.800Z,3.60
2023-03-27T02:35:48.554Z,5.15
2023-03-27T02:46:28.935Z,2.35
2023-03-27T02:51:28.490Z,1.63
2023-03-27T02:56:31.487Z,1.77
2023-03-27T03:01:30.205Z,2.47
2023-03-27T03:06:41.940Z,2.63
2023-03-27T03:11:46.129Z,1.60
2023-03-27T03:16:43.048Z,3.80
2023-03-27T03:21:40.112Z,3.85
2023-03-27T03:26:44.440Z,1.38
2023-03-27T03:31:44.928Z,2.35
2023-03-27T03:36:44.178Z,4.82
2023-03-27T03:41:42.206Z,1.88
2023-03-27T03:46:39.368Z,2.13
2023-03-27T03:51:36.526Z,4.82
2023-03-27T03:56:34.514Z,3.45
2023-03-27T04:01:33.059Z,2.13
2023-03-27T04:06:31.930Z,3.47
2023-03-27T04:11:29.015Z,4.95
2023-03-27T04:16:49.348Z,2.75
2023-03-27T04:21:53.343Z,9.52
2023-03-27T04:26:51.633Z,2.10
2023-03-27T04:31:52.109Z,2.50
2023-03-27T04:37:12.327Z,2.30
2023-03-27T04:42:15.250Z,2.72
2023-03-27T04:47:15.272Z,3.13
2023-03-27T04:52:13.886Z,2.35
2023-03-27T04:57:11.826Z,3.67
2023-03-27T05:02:10.390Z,4.07
2023-03-27T05:12:23.306Z,2.78
2023-03-27T05:17:25.606Z,1.88
2023-03-27T05:22:24.400Z,2.80
2023-03-27T05:27:31.748Z,3.15
2023-03-27T05:32:32.235Z,2.58
2023-03-27T05:37:40.421Z,6.93
2023-03-27T05:42:51.873Z,3.35
2023-03-27T05:47:51.232Z,3.80
2023-03-27T05:52:55.191Z,4.43
2023-03-27T05:57:57.776Z,4.55
2023-03-27T06:02:58.117Z,2.97
2023-03-27T06:08:09.110Z,3.13
2023-03-27T06:13:09.104Z,3.40
2023-03-27T06:18:18.703Z,3.25
2023-03-27T06:23:18.743Z,3.20
2023-03-27T06:28:21.036Z,3.17
2023-03-27T06:33:19.119Z,3.95
2023-03-27T06:38:18.468Z,3.55
2023-03-27T06:43:18.328Z,3.88
2023-03-27T06:48:29.427Z,3.50
2023-03-27T06:53:29.945Z,4.40
2023-03-27T06:58:30.154Z,17.50
2023-03-27T07:03:30.310Z,3.33
2023-03-27T07:08:59.950Z,3.38
2023-03-27T07:13:57.106Z,2.85
2023-03-27T07:19:02.148Z,3.47
2023-03-27T07:24:01.600Z,5.65
2023-03-27T07:29:05.403Z,4.55
2023-03-27T07:34:02.545Z,3.72
2023-03-27T07:39:20.574Z,3.60
2023-03-27T07:44:18.035Z,6.97
2023-03-27T07:49:39.417Z,4.80
2023-03-27T07:54:42.425Z,3.38
2023-03-27T07:59:41.411Z,3.80
2023-03-27T08:04:45.480Z,7.23
2023-03-27T08:09:43.211Z,7.00
2023-03-27T08:14:40.541Z,5.13
2023-03-27T08:19:45.856Z,2.83
2023-03-27T08:24:44.403Z,3.47
2023-03-27T08:29:55.849Z,3.60
2023-03-27T08:34:53.885Z,9.35
2023-03-27T08:39:58.232Z,5.10
2023-03-27T08:44:58.319Z,7.30
2023-03-27T08:50:21.807Z,3.15
2023-03-27T08:55:33.872Z,3.20
2023-03-27T09:00:44.339Z,4.40
2023-03-27T09:05:59.928Z,8.23
2023-03-27T09:16:14.386Z,4.75
2023-03-27T09:21:19.685Z,5.00
2023-03-27T09:26:21.130Z,7.35
2023-03-27T09:32:00.153Z,3.53
2023-03-27T09:36:59.347Z,5.65
2023-03-27T09:42:06.757Z,3.95
2023-03-27T09:47:11.190Z,3.25
2023-03-27T09:52:32.980Z,6.10
2023-03-27T09:57:41.176Z,2.92
2023-03-27T10:02:38.810Z,4.38
2023-03-27T10:07:35.797Z,5.25
2023-03-27T10:12:36.264Z,3.00
2023-03-27T10:17:37.861Z,3.78
2023-03-27T10:22:41.725Z,7.07
2023-03-27T10:27:43.221Z,2.90
2023-03-27T10:33:07.224Z,5.38
2023-03-27T10:38:25.818Z,3.95
2023-03-27T10:43:33.582Z,3.10
2023-03-27T10:48:43.735Z,4.18
2023-03-27T10:53:53.295Z,7.50
2023-03-27T10:59:01.306Z,4.32
2023-03-27T11:04:06.131Z,6.22
2023-03-27T11:09:17.943Z,5.95
2023-03-27T11:14:34.552Z,5.57
2023-03-27T11:19:45.201Z,3.17
2023-03-27T11:25:02.788Z,5.28
2023-03-27T11:30:24.620Z,5.47
2023-03-27T11:35:33.567Z,6.40
2023-03-27T11:40:47.929Z,4.03
2023-03-27T11:45:56.373Z,4.43
2023-03-27T11:51:01.301Z,4.97
2023-03-27T11:56:12.650Z,7.90
2023-03-27T12:01:22.651Z,9.68
2023-03-27T12:06:31.673Z,4.90
2023-03-27T12:11:29.810Z,8.10
2023-03-27T12:16:48.311Z,12.32
2023-03-27T12:21:58.754Z,4.82
2023-03-27T12:27:22.785Z,4.97
2023-03-27T12:32:55.380Z,4.75
2023-03-27T12:37:59.342Z,4.32
2023-03-27T12:43:07.450Z,7.33
2023-03-27T12:48:19.703Z,15.32
2023-03-27T12:53:54.097Z,7.45
2023-03-27T12:58:57.058Z,4.00
2023-03-27T13:04:12.110Z,3.60
2023-03-27T13:09:23.697Z,4.70
2023-03-27T13:15:01.151Z,4.43
2023-03-27T13:20:15.917Z,3.63
2023-03-27T13:25:30.467Z,2.60
2023-03-27T13:30:43.185Z,4.30
2023-03-27T13:36:10.064Z,5.80
2023-03-27T13:41:51.871Z,5.97
2023-03-27T13:47:50.032Z,4.78
2023-03-27T13:53:10.350Z,4.78
2023-03-27T13:59:09.276Z,6.40
2023-03-27T14:04:25.086Z,5.35
2023-03-27T14:09:37.532Z,4.55
2023-03-27T14:15:16.009Z,7.45
2023-03-27T14:20:27.715Z,3.25
2023-03-27T14:25:33.375Z,3.88
2023-03-27T14:30:49.443Z,4.70
2023-03-27T14:36:07.453Z,4.55
2023-03-27T14:41:26.144Z,4.35
2023-03-27T14:46:28.805Z,2.75
2023-03-27T14:51:36.466Z,3.10
2023-03-27T14:56:47.880Z,4.70
2023-03-27T15:02:14.542Z,7.10
2023-03-27T15:07:18.180Z,5.28
2023-03-27T15:12:24.174Z,7.30
2023-03-27T15:17:23.135Z,3.83
2023-03-27T15:22:30.008Z,4.22
2023-03-27T15:27:30.472Z,5.03
2023-03-27T15:32:49.453Z,5.30
2023-03-27T15:37:52.921Z,3.33
2023-03-27T15:42:54.075Z,4.78
2023-03-27T15:48:00.897Z,6.07
2023-03-27T15:52:58.237Z,4.65
2023-03-27T15:57:55.208Z,5.65
2023-03-27T16:02:55.777Z,3.53
2023-03-27T16:07:57.984Z,5.65
2023-03-27T16:12:57.667Z,5.80
2023-03-27T16:17:58.213Z,6.75
2023-03-27T16:22:57.077Z,6.50
2023-03-27T16:27:58.993Z,6.10
2023-03-27T16:32:56.021Z,7.50
2023-03-27T16:37:53.296Z,5.85
2023-03-27T16:42:50.934Z,4.72
2023-03-27T16:47:52.298Z,7.28
2023-03-27T16:52:52.264Z,6.13
2023-03-27T16:57:51.556Z,5.47
2023-03-27T17:02:50.348Z,6.95
2023-03-27T17:07:47.825Z,6.90
2023-03-27T17:12:44.875Z,6.18
2023-03-27T17:17:41.852Z,6.03
2023-03-27T17:22:46.432Z,8.18
2023-03-27T17:27:51.035Z,7.05
2023-03-27T17:32:48.045Z,8.50
2023-03-27T17:37:45.943Z,8.82
2023-03-27T17:42:42.947Z,11.50
2023-03-27T17:52:46.553Z,11.77
2023-03-27T17:57:49.071Z,9.43
2023-03-27T18:02:52.055Z,8.48
2023-03-27T18:07:53.957Z,7.75
2023-03-27T18:12:54.378Z,8.57
2023-03-27T18:17:51.400Z,9.35
2023-03-27T18:22:49.868Z,9.95
2023-03-27T18:27:47.344Z,18.20
2023-03-27T18:32:45.942Z,16.88
2023-03-27T18:37:43.840Z,16.27
2023-03-27T18:42:43.223Z,10.75
2023-03-27T18:47:42.532Z,10.18
2023-03-27T18:52:40.088Z,10.40
2023-03-27T18:57:37.729Z,8.50
2023-03-27T19:02:36.036Z,11.00
2023-03-27T19:07:33.590Z,10.65
2023-03-27T19:12:31.650Z,11.50
2023-03-27T19:17:58.352Z,10.98
2023-03-27T19:23:17.598Z,9.57
2023-03-27T19:28:20.877Z,11.13
2023-03-27T19:33:19.989Z,10.00
2023-03-27T19:38:17.726Z,11.68
2023-03-27T19:43:17.325Z,11.82
2023-03-27T19:48:14.268Z,10.18
2023-03-27T19:53:11.550Z,10.38
2023-03-27T19:58:09.369Z,10.65
2023-03-27T20:03:09.671Z,10.60
2023-03-27T20:08:06.648Z,10.35
2023-03-27T20:13:04.132Z,9.13
2023-03-27T20:18:04.347Z,12.25
2023-03-27T20:23:01.495Z,8.35
2023-03-27T20:27:58.582Z,7.22
2023-03-27T20:32:57.528Z,8.95
2023-03-27T20:37:56.776Z,8.75
2023-03-27T20:43:02.476Z,6.18
2023-03-27T20:48:03.250Z,6.43
2023-03-27T20:53:00.852Z,5.97
2023-03-27T20:57:57.621Z,5.63
2023-03-27T21:02:54.532Z,3.92
2023-03-27T21:07:51.875Z,4.68
2023-03-27T21:12:50.574Z,4.68
2023-03-27T21:17:47.537Z,5.68
2023-03-27T21:22:45.530Z,5.05
2023-03-27T21:27:42.491Z,4.25
2023-03-27T21:32:40.675Z,4.82
2023-03-27T21:37:37.439Z,4.43
2023-03-27T21:42:34.205Z,3.50
2023-03-27T21:47:44.582Z,3.88
2023-03-27T21:52:44.345Z,4.40
2023-03-27T21:57:41.260Z,5.25
2023-03-27T22:02:38.139Z,3.67
2023-03-27T22:07:35.091Z,5.68
2023-03-27T22:12:34.613Z,3.22
2023-03-27T22:17:31.610Z,3.35
2023-03-27T22:22:28.495Z,3.42
2023-03-27T22:27:25.212Z,3.78
2023-03-27T22:32:22.687Z,3.85
2023-03-27T22:37:20.150Z,3.30
2023-03-27T22:42:17.225Z,4.03
2023-03-27T22:47:14.116Z,3.95
2023-03-27T22:52:11.746Z,5.10
2023-03-27T22:57:08.607Z,4.53
2023-03-27T23:02:05.861Z,4.55
2023-03-27T23:07:02.640Z,4.18
2023-03-27T23:12:00.057Z,4.15
2023-03-27T23:16:57.072Z,5.10
2023-03-27T23:21:54.061Z,3.88
2023-03-27T23:26:51.431Z,4.07
2023-03-27T23:31:51.421Z,3.97
2023-03-27T23:36:48.373Z,6.30
2023-03-27T23:41:45.360Z,4.70
2023-03-27T23:46:42.144Z,4.95
2023-03-27T23:51:39.648Z,3.53
2023-03-27T23:56:36.388Z,3.65
